createdAt,value
2018-04-23T00:02:07.916Z,8.27
2018-04-23T00:04:35.577Z,10.00
2018-04-23T00:07:03.201Z,12.70
2018-04-23T00:09:30.826Z,15.70
2018-04-23T00:11:58.462Z,7.93
2018-04-23T00:14:26.072Z,10.27
2018-04-23T00:16:53.729Z,12.50
2018-04-23T00:19:21.329Z,9.33
2018-04-23T00:21:48.967Z,8.73
2018-04-23T00:24:16.594Z,11.03
2018-04-23T00:26:44.216Z,7.17
2018-04-23T00:29:11.817Z,5.83
2018-04-23T00:31:39.462Z,9.13
2018-04-23T00:34:07.072Z,6.23
2018-04-23T00:36:34.722Z,6.63
2018-04-23T00:39:02.317Z,4.80
2018-04-23T00:41:29.945Z,7.03
2018-04-23T00:43:57.550Z,5.50
2018-04-23T00:46:25.141Z,8.17
2018-04-23T00:48:52.804Z,6.73
2018-04-23T00:51:20.497Z,7.77
2018-04-23T00:53:48.120Z,6.37
2018-04-23T00:56:15.744Z,6.87
2018-04-23T00:58:43.390Z,7.23
2018-04-23T01:01:10.981Z,8.03
2018-04-23T01:03:38.629Z,6.70
2018-04-23T01:06:06.219Z,6.20
2018-04-23T01:08:34.016Z,6.73
2018-04-23T01:11:01.609Z,8.93
2018-04-23T01:13:29.232Z,6.30
2018-04-23T01:15:56.867Z,7.00
2018-04-23T01:18:24.488Z,5.57
2018-04-23T01:20:52.098Z,5.43
2018-04-23T01:23:19.765Z,6.40
2018-04-23T01:25:47.393Z,7.70
2018-04-23T01:28:15.081Z,10.67
2018-04-23T01:30:42.704Z,6.83
2018-04-23T01:33:10.309Z,7.07
2018-04-23T01:35:37.968Z,7.13
2018-04-23T01:38:05.610Z,6.90
2018-04-23T01:40:33.245Z,6.40
2018-04-23T01:43:00.943Z,6.43
2018-04-23T01:45:28.569Z,10.77
2018-04-23T01:47:56.170Z,7.60
2018-04-23T01:50:23.802Z,7.13
2018-04-23T01:52:51.400Z,7.63
2018-04-23T01:55:19.036Z,7.73
2018-04-23T01:57:46.637Z,7.03
2018-04-23T02:00:14.278Z,7.03
2018-04-23T02:02:41.892Z,7.70
2018-04-23T02:05:09.595Z,6.83
2018-04-23T02:07:37.200Z,8.60
2018-04-23T02:10:04.916Z,7.43
2018-04-23T02:12:32.496Z,6.97
2018-04-23T02:15:00.174Z,6.80
2018-04-23T02:17:27.798Z,7.30
2018-04-23T02:19:55.401Z,6.27
2018-04-23T02:22:23.058Z,6.53
2018-04-23T02:24:50.644Z,9.03
2018-04-23T02:27:18.268Z,6.00
2018-04-23T02:29:45.878Z,9.20
2018-04-23T02:32:13.509Z,6.50
2018-04-23T02:34:41.115Z,9.43
2018-04-23T02:37:08.813Z,7.63
2018-04-23T02:39:36.401Z,5.97
2018-04-23T02:42:04.033Z,6.23
2018-04-23T02:44:31.671Z,8.50
2018-04-23T02:46:59.311Z,5.87
2018-04-23T02:49:26.903Z,6.17
2018-04-23T02:51:54.546Z,8.80
2018-04-23T02:54:22.147Z,8.03
2018-04-23T02:56:49.745Z,5.97
2018-04-23T02:59:17.372Z,6.63
2018-04-23T03:01:44.972Z,7.70
2018-04-23T03:04:12.662Z,6.63
2018-04-23T03:06:40.276Z,7.53
2018-04-23T03:09:07.921Z,8.73
2018-04-23T03:11:35.619Z,10.60
2018-04-23T03:14:03.319Z,14.30
2018-04-23T03:16:30.921Z,9.83
2018-04-23T03:18:58.550Z,11.97
2018-04-23T03:21:26.146Z,9.73
2018-04-23T03:23:53.836Z,12.77
2018-04-23T03:26:21.448Z,10.03
2018-04-23T03:28:49.088Z,22.40
2018-04-23T03:31:16.689Z,17.33
2018-04-23T03:33:44.489Z,10.70
2018-04-23T03:36:12.117Z,20.13
2018-04-23T03:38:39.729Z,12.33
2018-04-23T03:41:07.373Z,12.53
2018-04-23T03:43:34.973Z,14.97
2018-04-23T03:46:02.613Z,13.70
2018-04-23T03:48:30.324Z,15.03
2018-04-23T03:50:57.957Z,13.80
2018-04-23T03:53:25.617Z,12.03
2018-04-23T03:55:53.312Z,13.17
2018-04-23T03:58:20.912Z,16.50
2018-04-23T04:00:48.689Z,9.87
2018-04-23T04:03:16.314Z,9.93
2018-04-23T04:05:43.940Z,12.80
2018-04-23T04:08:11.644Z,10.07
2018-04-23T04:10:39.284Z,10.20
2018-04-23T04:13:18.435Z,8.43
2018-04-23T04:15:57.697Z,12.40
2018-04-23T04:18:36.908Z,12.47
2018-04-23T04:21:04.549Z,9.90
2018-04-23T04:23:32.151Z,6.80
2018-04-23T04:25:59.757Z,9.50
2018-04-23T04:28:29.049Z,7.50
2018-04-23T04:30:56.650Z,11.63
2018-04-23T04:33:24.378Z,7.27
2018-04-23T04:35:51.984Z,11.33
2018-04-23T04:38:19.623Z,8.03
2018-04-23T04:40:47.257Z,11.47
2018-04-23T04:43:14.917Z,17.27
2018-04-23T04:45:42.521Z,19.10
2018-04-23T04:48:10.145Z,7.70
2018-04-23T04:50:37.757Z,9.27
2018-04-23T04:53:05.393Z,7.40
2018-04-23T04:55:32.996Z,8.90
2018-04-23T04:58:00.668Z,9.70
2018-04-23T05:00:28.261Z,7.60
2018-04-23T05:02:55.940Z,7.90
2018-04-23T05:05:23.550Z,14.17
2018-04-23T05:07:51.193Z,19.07
2018-04-23T05:10:18.808Z,8.20
2018-04-23T05:12:46.457Z,10.87
2018-04-23T05:15:14.082Z,8.20
2018-04-23T05:17:41.682Z,8.03
2018-04-23T05:20:09.301Z,12.77
2018-04-23T05:22:36.921Z,6.63
2018-04-23T05:25:04.625Z,7.90
2018-04-23T05:27:32.310Z,6.60
2018-04-23T05:29:59.968Z,10.50
2018-04-23T05:32:27.553Z,7.63
2018-04-23T05:34:55.202Z,7.63
2018-04-23T05:37:22.932Z,12.60
2018-04-23T05:39:50.569Z,6.17
2018-04-23T05:42:18.173Z,10.13
2018-04-23T05:44:45.835Z,5.30
2018-04-23T05:47:13.453Z,6.67
2018-04-23T05:49:41.143Z,12.10
2018-04-23T05:52:08.737Z,8.13
2018-04-23T05:54:36.404Z,8.83
2018-04-23T05:57:04.037Z,8.80
2018-04-23T05:59:31.629Z,7.00
2018-04-23T06:01:59.352Z,8.07
2018-04-23T06:04:26.965Z,7.07
2018-04-23T06:06:54.590Z,14.37
2018-04-23T06:09:22.198Z,10.20
2018-04-23T06:11:49.973Z,7.27
2018-04-23T06:14:17.639Z,12.00
2018-04-23T06:16:45.261Z,9.77
2018-04-23T06:19:12.865Z,8.87
2018-04-23T06:21:40.638Z,7.90
2018-04-23T06:24:08.228Z,9.80
2018-04-23T06:26:35.854Z,9.57
2018-04-23T06:29:03.449Z,15.63
2018-04-23T06:31:31.098Z,15.70
2018-04-23T06:33:58.681Z,9.13
2018-04-23T06:36:26.328Z,10.53
2018-04-23T06:38:53.937Z,13.80
2018-04-23T06:41:21.572Z,9.07
2018-04-23T06:43:49.174Z,10.83
2018-04-23T06:46:16.801Z,8.93
2018-04-23T06:48:44.534Z,15.37
2018-04-23T06:51:12.158Z,15.00
2018-04-23T06:53:39.801Z,12.20
2018-04-23T06:56:08.152Z,9.93
2018-04-23T06:58:36.061Z,8.93
2018-04-23T07:01:03.662Z,9.93
2018-04-23T07:03:31.351Z,11.50
2018-04-23T07:05:58.938Z,11.90
2018-04-23T07:08:26.581Z,12.00
2018-04-23T07:10:54.189Z,13.30
2018-04-23T07:13:21.842Z,9.17
2018-04-23T07:15:49.527Z,15.07
2018-04-23T07:18:17.135Z,13.27
2018-04-23T07:20:44.837Z,12.10
2018-04-23T07:23:12.430Z,11.00
2018-04-23T07:25:40.054Z,10.17
2018-04-23T07:28:07.655Z,9.43
2018-04-23T07:30:35.351Z,14.00
2018-04-23T07:33:02.944Z,17.00
2018-04-23T07:35:30.600Z,13.70
2018-04-23T07:37:58.218Z,14.10
2018-04-23T07:40:25.872Z,12.07
2018-04-23T07:42:53.492Z,13.80
2018-04-23T07:45:21.125Z,11.73
2018-04-23T07:47:48.735Z,10.27
2018-04-23T07:50:16.353Z,10.93
2018-04-23T07:52:43.949Z,12.07
2018-04-23T07:55:11.601Z,12.17
2018-04-23T07:57:39.196Z,12.53
2018-04-23T08:00:06.797Z,13.30
2018-04-23T08:02:34.521Z,14.83
2018-04-23T08:05:02.145Z,15.80
2018-04-23T08:07:29.784Z,11.97
2018-04-23T08:09:57.400Z,12.43
2018-04-23T08:12:25.037Z,11.80
2018-04-23T08:14:52.670Z,15.53
2018-04-23T08:17:20.400Z,13.53
2018-04-23T08:19:48.058Z,14.37
2018-04-23T08:22:15.681Z,13.17
2018-04-23T08:24:43.294Z,15.50
2018-04-23T08:27:11.004Z,15.40
2018-04-23T08:29:38.602Z,11.80
2018-04-23T08:32:06.240Z,10.57
2018-04-23T08:34:34.093Z,16.47
2018-04-23T08:37:01.693Z,11.20
2018-04-23T08:39:29.366Z,15.70
2018-04-23T08:41:56.973Z,14.47
2018-04-23T08:44:24.700Z,14.83
2018-04-23T08:46:52.304Z,14.73
2018-04-23T08:49:19.951Z,12.50
2018-04-23T08:51:47.561Z,13.87
2018-04-23T08:54:15.194Z,13.30
2018-04-23T08:56:42.801Z,9.97
2018-04-23T08:59:10.548Z,8.70
2018-04-23T09:01:38.152Z,7.97
2018-04-23T09:04:05.820Z,8.23
2018-04-23T09:06:33.438Z,6.70
2018-04-23T09:09:01.078Z,9.00
2018-04-23T09:11:29.059Z,8.57
2018-04-23T09:13:57.159Z,5.30
2018-04-23T09:16:24.955Z,6.77
2018-04-23T09:18:52.852Z,5.87
2018-04-23T09:21:20.703Z,7.37
2018-04-23T09:23:48.484Z,7.63
2018-04-23T09:26:16.462Z,7.80
2018-04-23T09:28:44.764Z,8.20
2018-04-23T09:31:12.879Z,6.07
2018-04-23T09:33:41.008Z,9.30
2018-04-23T09:36:08.653Z,8.77
2018-04-23T09:38:36.284Z,8.63
2018-04-23T09:41:03.925Z,9.60
2018-04-23T09:43:31.763Z,8.83
2018-04-23T09:45:59.768Z,13.50
2018-04-23T09:48:27.373Z,10.90
2018-04-23T09:50:54.993Z,10.50
2018-04-23T09:53:22.642Z,10.90
2018-04-23T09:55:50.297Z,11.83
2018-04-23T09:58:17.925Z,11.13
2018-04-23T10:00:45.669Z,13.57
2018-04-23T10:03:13.317Z,11.33
2018-04-23T10:05:41.013Z,13.10
2018-04-23T10:08:08.753Z,13.13
2018-04-23T10:10:36.509Z,11.87
2018-04-23T10:13:04.167Z,9.77
2018-04-23T10:15:31.793Z,12.13
2018-04-23T10:17:59.396Z,10.80
2018-04-23T10:20:27.035Z,12.97
2018-04-23T10:22:54.642Z,11.20
2018-04-23T10:25:22.472Z,12.20
2018-04-23T10:27:50.113Z,12.90
2018-04-23T10:30:17.838Z,11.63
2018-04-23T10:32:45.498Z,11.20
2018-04-23T10:35:13.319Z,10.73
2018-04-23T10:37:41.030Z,10.60
2018-04-23T10:40:08.728Z,10.60
2018-04-23T10:42:36.589Z,12.37
2018-04-23T10:45:04.419Z,12.40
2018-04-23T10:47:32.141Z,11.40
2018-04-23T10:49:59.802Z,12.80
2018-04-23T10:52:27.661Z,11.13
2018-04-23T10:54:55.570Z,11.13
2018-04-23T10:57:23.523Z,9.30
2018-04-23T10:59:51.234Z,9.50
2018-04-23T11:02:18.974Z,10.43
2018-04-23T11:04:46.887Z,11.10
2018-04-23T11:07:14.852Z,9.43
2018-04-23T11:09:42.575Z,9.47
2018-04-23T11:12:10.284Z,9.20
2018-04-23T11:14:38.066Z,10.30
2018-04-23T11:17:05.764Z,11.50
2018-04-23T11:19:33.617Z,9.83
2018-04-23T11:22:01.385Z,8.73
2018-04-23T11:24:29.060Z,10.00
2018-04-23T11:26:57.218Z,9.57
2018-04-23T11:29:25.179Z,10.53
2018-04-23T11:31:52.953Z,9.27
2018-04-23T11:34:20.669Z,7.50
2018-04-23T11:36:48.443Z,11.50
2018-04-23T11:39:16.547Z,7.43
2018-04-23T11:41:44.316Z,7.23
2018-04-23T11:44:12.434Z,8.40
2018-04-23T11:46:40.454Z,7.97
2018-04-23T11:49:08.499Z,8.23
2018-04-23T11:51:36.292Z,6.87
2018-04-23T11:54:04.202Z,6.20
2018-04-23T11:56:31.885Z,5.87
2018-04-23T11:58:59.684Z,8.00
2018-04-23T12:01:27.425Z,6.80
2018-04-23T12:03:55.131Z,7.87
2018-04-23T12:06:22.901Z,8.07
2018-04-23T12:08:50.750Z,7.30
2018-04-23T12:11:18.909Z,7.67
2018-04-23T12:13:46.669Z,6.57
2018-04-23T12:16:14.410Z,8.27
2018-04-23T12:18:42.218Z,7.40
2018-04-23T12:21:10.141Z,8.70
2018-04-23T12:23:38.043Z,10.67
2018-04-23T12:26:05.737Z,6.67
2018-04-23T12:28:33.448Z,6.80
2018-04-23T12:31:01.222Z,6.20
2018-04-23T12:33:28.833Z,6.97
2018-04-23T12:35:56.536Z,5.80
2018-04-23T12:38:24.144Z,6.43
2018-04-23T12:40:51.924Z,6.30
2018-04-23T12:43:19.572Z,8.03
2018-04-23T12:45:47.229Z,6.07
2018-04-23T12:48:14.827Z,6.33
2018-04-23T12:50:42.515Z,9.00
2018-04-23T12:53:10.164Z,6.03
2018-04-23T12:55:37.905Z,5.77
2018-04-23T12:58:05.599Z,5.70
2018-04-23T13:00:33.264Z,6.10
2018-04-23T13:03:00.886Z,4.17
2018-04-23T13:05:28.583Z,5.23
2018-04-23T13:07:56.198Z,3.80
2018-04-23T13:10:23.861Z,3.70
2018-04-23T13:12:51.505Z,4.47
2018-04-23T13:15:19.172Z,3.43
2018-04-23T13:17:46.814Z,4.50
2018-04-23T13:20:14.413Z,5.03
2018-04-23T13:22:42.049Z,4.40
2018-04-23T13:25:09.645Z,3.93
2018-04-23T13:27:37.279Z,4.13
2018-04-23T13:30:04.882Z,4.30
2018-04-23T13:32:32.522Z,3.80
2018-04-23T13:35:00.118Z,6.87
2018-04-23T13:37:27.802Z,3.60
2018-04-23T13:39:55.412Z,3.93
2018-04-23T13:42:23.073Z,3.93
2018-04-23T13:44:50.673Z,4.23
2018-04-23T13:47:18.261Z,4.00
2018-04-23T13:49:45.893Z,4.50
2018-04-23T13:52:13.489Z,6.20
2018-04-23T13:54:41.117Z,4.40
2018-04-23T13:57:08.728Z,3.40
2018-04-23T13:59:36.366Z,3.60
2018-04-23T14:02:03.949Z,6.27
2018-04-23T14:04:31.657Z,3.93
2018-04-23T14:06:59.306Z,4.90
2018-04-23T14:09:26.986Z,3.97
2018-04-23T14:11:54.573Z,3.70
2018-04-23T14:14:22.212Z,5.70
2018-04-23T14:16:49.847Z,3.60
2018-04-23T14:19:17.416Z,4.90
2018-04-23T14:21:45.022Z,4.13
2018-04-23T14:24:12.653Z,4.57
2018-04-23T14:26:40.316Z,3.67
2018-04-23T14:29:08.013Z,5.47
2018-04-23T14:31:35.743Z,6.30
2018-04-23T14:34:03.397Z,5.40
2018-04-23T14:36:31.088Z,7.07
2018-04-23T14:38:58.727Z,5.97
2018-04-23T14:41:26.356Z,4.90
2018-04-23T14:43:54.065Z,5.73
2018-04-23T14:46:22.085Z,4.70
2018-04-23T14:48:50.043Z,5.17
2018-04-23T14:51:17.797Z,5.23
2018-04-23T14:53:45.426Z,4.37
2018-04-23T14:56:13.045Z,8.40
2018-04-23T14:58:40.784Z,6.53
2018-04-23T15:01:08.471Z,6.40
2018-04-23T15:03:36.305Z,5.90
2018-04-23T15:06:04.082Z,8.40
2018-04-23T15:08:31.852Z,6.17
2018-04-23T15:10:59.622Z,5.23
2018-04-23T15:13:27.333Z,6.80
2018-04-23T15:15:54.970Z,4.77
2018-04-23T15:18:22.651Z,5.20
2018-04-23T15:20:50.313Z,6.63
2018-04-23T15:23:18.450Z,5.90
2018-04-23T15:25:46.319Z,15.90
2018-04-23T15:28:14.063Z,6.07
2018-04-23T15:30:41.713Z,6.07
2018-04-23T15:33:09.542Z,5.60
2018-04-23T15:35:37.308Z,9.20
2018-04-23T15:38:05.114Z,6.13
2018-04-23T15:40:32.874Z,6.47
2018-04-23T15:43:00.912Z,5.30
2018-04-23T15:45:28.775Z,10.70
2018-04-23T15:47:56.581Z,7.70
2018-04-23T15:50:24.408Z,8.43
2018-04-23T15:52:52.215Z,8.13
2018-04-23T15:55:19.942Z,7.10
2018-04-23T15:57:47.591Z,8.50
2018-04-23T16:00:15.231Z,8.90
2018-04-23T16:02:42.905Z,10.03
2018-04-23T16:05:10.562Z,8.33
2018-04-23T16:07:38.204Z,10.90
2018-04-23T16:10:05.881Z,8.13
2018-04-23T16:12:33.473Z,11.57
2018-04-23T16:15:01.113Z,9.60
2018-04-23T16:17:28.821Z,8.77
2018-04-23T16:19:56.498Z,8.43
2018-04-23T16:22:24.452Z,10.47
2018-04-23T16:24:52.220Z,7.77
2018-04-23T16:27:19.994Z,10.77
2018-04-23T16:29:47.853Z,18.53
2018-04-23T16:32:16.938Z,7.47
2018-04-23T16:34:44.911Z,7.60
2018-04-23T16:37:12.785Z,10.00
2018-04-23T16:39:40.597Z,8.00
2018-04-23T16:42:08.479Z,8.67
2018-04-23T16:44:39.417Z,7.17
2018-04-23T16:47:03.891Z,8.17
2018-04-23T16:49:31.593Z,10.20
2018-04-23T16:51:59.269Z,7.00
2018-04-23T16:54:26.924Z,7.83
2018-04-23T16:56:54.639Z,8.03
2018-04-23T16:59:22.284Z,7.53
2018-04-23T17:01:49.904Z,6.83
2018-04-23T17:04:17.545Z,7.67
2018-04-23T17:06:45.199Z,5.23
2018-04-23T17:09:12.888Z,7.83
2018-04-23T17:11:40.526Z,7.00
2018-04-23T17:14:08.235Z,5.57
2018-04-23T17:16:35.882Z,6.37
2018-04-23T17:19:03.540Z,9.43
2018-04-23T17:21:31.263Z,6.47
2018-04-23T17:23:58.913Z,7.37
2018-04-23T17:26:26.588Z,4.63
2018-04-23T17:28:54.325Z,4.63
2018-04-23T17:31:22.020Z,6.67
2018-04-23T17:33:49.685Z,4.60
2018-04-23T17:36:17.474Z,6.90
2018-04-23T17:38:45.128Z,5.37
2018-04-23T17:41:12.907Z,6.57
2018-04-23T17:43:40.763Z,14.30
2018-04-23T17:46:08.384Z,15.23
2018-04-23T17:48:36.085Z,8.93
2018-04-23T17:51:03.775Z,6.63
2018-04-23T17:53:31.473Z,7.77
2018-04-23T17:55:59.145Z,7.13
2018-04-23T17:58:26.835Z,9.30
2018-04-23T18:00:54.517Z,8.03
2018-04-23T18:03:22.116Z,6.53
2018-04-23T18:05:49.806Z,7.77
2018-04-23T18:08:17.470Z,9.50
2018-04-23T18:10:45.144Z,6.53
2018-04-23T18:13:12.816Z,7.70
2018-04-23T18:15:40.498Z,8.03
2018-04-23T18:18:08.133Z,8.47
2018-04-23T18:20:35.801Z,8.40
2018-04-23T18:23:03.455Z,6.07
2018-04-23T18:25:31.100Z,8.50
2018-04-23T18:27:58.862Z,6.20
2018-04-23T18:30:26.694Z,9.00
2018-04-23T18:32:54.356Z,9.30
2018-04-23T18:35:22.002Z,7.10
2018-04-23T18:37:49.724Z,10.97
2018-04-23T18:40:17.440Z,8.50
2018-04-23T18:42:45.190Z,7.27
2018-04-23T18:45:12.938Z,11.23
2018-04-23T18:47:40.540Z,7.00
2018-04-23T18:50:08.132Z,5.97
2018-04-23T18:52:35.791Z,6.60
2018-04-23T18:55:03.510Z,8.23
2018-04-23T18:57:31.195Z,7.20
2018-04-23T18:59:58.804Z,7.50
2018-04-23T19:02:26.453Z,8.27
2018-04-23T19:04:54.084Z,6.73
2018-04-23T19:07:21.737Z,7.50
2018-04-23T19:09:49.414Z,18.93
2018-04-23T19:12:17.015Z,14.20
2018-04-23T19:14:44.722Z,7.03
2018-04-23T19:17:12.282Z,8.10
2018-04-23T19:19:39.981Z,7.30
2018-04-23T19:22:07.641Z,7.20
2018-04-23T19:24:35.299Z,7.90
2018-04-23T19:27:02.929Z,7.90
2018-04-23T19:29:30.675Z,8.30
2018-04-23T19:31:58.460Z,7.40
2018-04-23T19:34:26.138Z,7.20
2018-04-23T19:36:53.812Z,6.60
2018-04-23T19:39:21.665Z,6.97
2018-04-23T19:41:49.392Z,7.40
2018-04-23T19:44:17.029Z,7.73
2018-04-23T19:46:44.706Z,7.10
2018-04-23T19:49:12.471Z,8.83
2018-04-23T19:51:40.180Z,9.00
2018-04-23T19:54:07.799Z,8.20
2018-04-23T19:56:35.594Z,8.20
2018-04-23T19:59:03.237Z,13.50
2018-04-23T20:01:31.041Z,12.60
2018-04-23T20:03:58.764Z,7.60
2018-04-23T20:06:26.395Z,7.80
2018-04-23T20:08:54.062Z,8.43
2018-04-23T20:11:21.704Z,8.50
2018-04-23T20:13:49.437Z,7.70
2018-04-23T20:16:17.099Z,7.53
2018-04-23T20:18:44.893Z,8.90
2018-04-23T20:21:12.576Z,8.20
2018-04-23T20:23:40.241Z,7.90
2018-04-23T20:26:07.840Z,7.40
2018-04-23T20:28:35.689Z,8.03
2018-04-23T20:31:03.273Z,7.80
2018-04-23T20:33:30.899Z,10.30
2018-04-23T20:35:58.601Z,11.33
2018-04-23T20:38:26.223Z,8.77
2018-04-23T20:40:53.914Z,8.40
2018-04-23T20:43:21.638Z,10.27
2018-04-23T20:45:49.344Z,8.63
2018-04-23T20:48:17.006Z,10.77
2018-04-23T20:50:44.711Z,9.27
2018-04-23T20:53:12.382Z,7.30
2018-04-23T20:55:40.065Z,8.97
2018-04-23T20:58:07.669Z,9.67
2018-04-23T21:00:35.360Z,8.70
2018-04-23T21:03:02.960Z,9.40
2018-04-23T21:05:30.725Z,11.50
2018-04-23T21:07:58.377Z,8.23
2018-04-23T21:10:26.030Z,8.87
2018-04-23T21:12:53.699Z,7.67
2018-04-23T21:15:21.375Z,8.47
2018-04-23T21:17:49.165Z,10.10
2018-04-23T21:20:16.813Z,9.60
2018-04-23T21:22:44.456Z,9.00
2018-04-23T21:25:12.177Z,7.07
2018-04-23T21:27:39.888Z,7.40
2018-04-23T21:30:07.520Z,12.80
2018-04-23T21:32:35.192Z,7.53
2018-04-23T21:35:02.834Z,10.40
2018-04-23T21:37:30.525Z,9.27
2018-04-23T21:39:58.233Z,7.87
2018-04-23T21:42:26.056Z,7.00
2018-04-23T21:44:53.776Z,6.33
2018-04-23T21:47:21.493Z,8.57
2018-04-23T21:49:49.162Z,6.20
2018-04-23T21:52:16.889Z,4.47
2018-04-23T21:54:44.655Z,4.43
2018-04-23T21:57:12.561Z,7.50
2018-04-23T21:59:40.271Z,4.10
2018-04-23T22:02:07.877Z,6.73
2018-04-23T22:04:35.535Z,4.83
2018-04-23T22:07:03.297Z,4.13
2018-04-23T22:09:30.957Z,4.27
2018-04-23T22:11:58.563Z,3.60
2018-04-23T22:14:26.230Z,7.33
2018-04-23T22:16:53.841Z,4.70
2018-04-23T22:19:21.523Z,13.17
2018-04-23T22:21:49.196Z,3.00
2018-04-23T22:24:16.889Z,4.63
2018-04-23T22:26:44.506Z,3.97
2018-04-23T22:29:12.142Z,3.00
2018-04-23T22:31:39.819Z,3.37
2018-04-23T22:34:07.441Z,4.23
2018-04-23T22:36:35.122Z,3.30
2018-04-23T22:39:02.814Z,2.80
2018-04-23T22:41:30.476Z,2.53
2018-04-23T22:43:58.101Z,5.00
2018-04-23T22:46:25.746Z,3.80
2018-04-23T22:48:53.401Z,2.90
2018-04-23T22:51:21.093Z,6.00
2018-04-23T22:53:48.708Z,7.07
2018-04-23T22:56:16.396Z,1.90
2018-04-23T22:58:44.019Z,5.77
2018-04-23T23:01:11.680Z,2.70
2018-04-23T23:03:39.386Z,2.73
2018-04-23T23:06:07.035Z,2.80
2018-04-23T23:08:34.670Z,3.80
2018-04-23T23:11:02.385Z,4.80
2018-04-23T23:13:30.096Z,4.60
2018-04-23T23:15:57.701Z,3.73
2018-04-23T23:18:25.349Z,4.07
2018-04-23T23:20:53.000Z,3.07
2018-04-23T23:23:20.672Z,15.20
2018-04-23T23:25:48.260Z,4.90
2018-04-23T23:28:15.922Z,3.93
2018-04-23T23:30:43.595Z,3.87
2018-04-23T23:33:11.286Z,2.60
2018-04-23T23:35:38.914Z,2.00
2018-04-23T23:38:06.595Z,3.10
2018-04-23T23:40:34.244Z,4.47
2018-04-23T23:43:01.930Z,4.03
2018-04-23T23:45:29.591Z,2.33
2018-04-23T23:47:57.248Z,3.00
2018-04-23T23:50:24.911Z,4.17
2018-04-23T23:52:52.573Z,5.23
2018-04-23T23:55:20.277Z,1.90
2018-04-23T23:57:47.948Z,3.50
